createdAt,value
2022-10-18T00:01:04.068Z,14.75
2022-10-18T00:03:32.011Z,14.05
2022-10-18T00:05:59.521Z,15.52
2022-10-18T00:08:27.339Z,14.18
2022-10-18T00:10:55.137Z,12.10
2022-10-18T00:13:23.285Z,9.63
2022-10-18T00:15:57.420Z,9.82
2022-10-18T00:18:24.829Z,9.77
2022-10-18T00:21:03.570Z,8.27
2022-10-18T00:23:32.022Z,9.60
2022-10-18T00:26:07.413Z,8.68
2022-10-18T00:28:35.739Z,7.25
2022-10-18T00:31:16.624Z,6.95
2022-10-18T00:33:45.910Z,6.50
2022-10-18T00:36:14.851Z,4.90
2022-10-18T00:38:42.608Z,3.65
2022-10-18T00:41:13.815Z,3.40
2022-10-18T00:43:57.941Z,4.18
2022-10-18T00:46:27.668Z,3.45
2022-10-18T00:48:57.923Z,3.47
2022-10-18T00:51:44.522Z,3.05
2022-10-18T00:54:13.881Z,2.30
2022-10-18T00:56:41.905Z,3.08
2022-10-18T00:59:14.219Z,3.05
2022-10-18T01:01:41.563Z,3.47
2022-10-18T01:04:09.029Z,3.10
2022-10-18T01:07:02.865Z,4.40
2022-10-18T01:09:39.127Z,4.63
2022-10-18T01:12:41.732Z,5.40
2022-10-18T01:15:29.613Z,5.57
2022-10-18T01:18:17.158Z,5.65
2022-10-18T01:21:23.247Z,5.60
2022-10-18T01:24:16.585Z,6.17
2022-10-18T01:27:16.902Z,7.18
2022-10-18T01:30:07.351Z,7.32
2022-10-18T01:32:40.069Z,8.88
2022-10-18T01:35:17.394Z,8.20
2022-10-18T01:37:48.796Z,8.25
2022-10-18T01:40:20.789Z,8.63
2022-10-18T01:42:50.078Z,8.25
2022-10-18T01:45:17.632Z,10.55
2022-10-18T01:47:47.632Z,9.25
2022-10-18T01:50:15.363Z,9.02
2022-10-18T01:52:52.568Z,9.38
2022-10-18T01:55:28.202Z,9.90
2022-10-18T02:00:43.141Z,9.30
2022-10-18T02:03:24.403Z,9.57
2022-10-18T02:06:11.089Z,9.43
2022-10-18T02:08:50.485Z,9.38
2022-10-18T02:11:18.857Z,9.55
2022-10-18T02:14:05.495Z,9.85
2022-10-18T02:16:42.089Z,7.90
2022-10-18T02:19:16.391Z,11.15
2022-10-18T02:21:46.652Z,8.57
2022-10-18T02:24:15.708Z,5.97
2022-10-18T02:26:43.154Z,6.45
2022-10-18T02:29:11.770Z,4.47
2022-10-18T02:31:49.097Z,7.18
2022-10-18T02:34:19.344Z,5.35
2022-10-18T02:36:53.422Z,4.43
2022-10-18T02:39:29.637Z,3.70
2022-10-18T02:41:58.355Z,3.60
2022-10-18T02:44:25.770Z,2.63
2022-10-18T02:46:54.661Z,2.65
2022-10-18T02:49:22.189Z,3.38
2022-10-18T02:51:49.570Z,3.20
2022-10-18T02:54:16.935Z,8.30
2022-10-18T02:56:44.258Z,7.28
2022-10-18T02:59:12.099Z,6.60
2022-10-18T03:01:39.520Z,9.15
2022-10-18T03:04:07.386Z,10.95
2022-10-18T03:06:34.836Z,10.80
2022-10-18T03:09:04.832Z,6.50
2022-10-18T03:11:32.921Z,11.10
2022-10-18T03:14:00.419Z,8.15
2022-10-18T03:16:27.912Z,7.30
2022-10-18T03:18:55.272Z,7.32
2022-10-18T03:21:22.610Z,9.20
2022-10-18T03:23:49.897Z,10.75
2022-10-18T03:26:17.257Z,10.52
2022-10-18T03:28:44.662Z,10.32
2022-10-18T03:31:12.026Z,8.98
2022-10-18T03:33:39.368Z,7.60
2022-10-18T03:36:06.770Z,6.55
2022-10-18T03:38:34.146Z,7.10
2022-10-18T03:41:01.483Z,6.53
2022-10-18T03:43:28.841Z,6.68
2022-10-18T03:45:56.205Z,7.20
2022-10-18T03:48:23.794Z,6.88
2022-10-18T03:50:51.035Z,7.88
2022-10-18T03:53:18.461Z,7.47
2022-10-18T03:55:50.386Z,5.00
2022-10-18T03:58:17.703Z,3.60
2022-10-18T04:00:45.011Z,3.25
2022-10-18T04:03:12.391Z,3.15
2022-10-18T04:05:41.104Z,2.80
2022-10-18T04:08:08.456Z,3.80
2022-10-18T04:10:38.861Z,2.20
2022-10-18T04:13:07.205Z,2.67
2022-10-18T04:15:34.911Z,2.30
2022-10-18T04:18:02.706Z,2.20
2022-10-18T04:20:30.239Z,2.03
2022-10-18T04:22:58.301Z,2.20
2022-10-18T04:25:25.919Z,2.53
2022-10-18T04:27:53.236Z,2.10
2022-10-18T04:30:20.577Z,2.35
2022-10-18T04:32:48.067Z,2.10
2022-10-18T04:35:15.434Z,2.45
2022-10-18T04:37:42.796Z,2.50
2022-10-18T04:40:10.682Z,2.05
2022-10-18T04:42:38.065Z,2.17
2022-10-18T04:45:05.779Z,2.97
2022-10-18T04:47:33.336Z,2.53
2022-10-18T04:50:00.914Z,2.45
2022-10-18T04:52:28.181Z,2.85
2022-10-18T04:54:55.568Z,2.42
2022-10-18T04:57:22.960Z,2.80
2022-10-18T04:59:50.323Z,2.83
2022-10-18T05:02:17.736Z,2.17
2022-10-18T05:04:45.082Z,2.85
2022-10-18T05:07:12.400Z,4.13
2022-10-18T05:09:40.188Z,4.00
2022-10-18T05:12:07.595Z,3.33
2022-10-18T05:14:34.892Z,2.78
2022-10-18T05:17:02.359Z,2.63
2022-10-18T05:19:29.629Z,4.05
2022-10-18T05:21:56.936Z,2.88
2022-10-18T05:24:26.997Z,3.65
2022-10-18T05:26:55.470Z,3.35
2022-10-18T05:29:23.177Z,2.92
2022-10-18T05:31:51.058Z,2.42
2022-10-18T05:34:18.981Z,2.97
2022-10-18T05:36:46.780Z,3.90
2022-10-18T05:39:14.126Z,2.97
2022-10-18T05:41:41.409Z,4.05
2022-10-18T05:44:08.755Z,4.70
2022-10-18T05:46:36.063Z,5.30
2022-10-18T05:49:03.466Z,5.75
2022-10-18T05:51:30.741Z,6.88
2022-10-18T05:53:59.043Z,6.72
2022-10-18T05:56:26.648Z,5.88
2022-10-18T05:58:54.065Z,6.20
2022-10-18T06:01:21.523Z,5.80
2022-10-18T06:03:49.156Z,5.45
2022-10-18T06:06:18.874Z,3.10
2022-10-18T06:08:49.963Z,3.60
2022-10-18T06:11:19.379Z,7.18
2022-10-18T06:13:51.514Z,4.78
2022-10-18T06:16:21.134Z,6.22
2022-10-18T06:18:50.102Z,4.93
2022-10-18T06:21:18.362Z,7.28
2022-10-18T06:23:50.353Z,5.63
2022-10-18T06:26:17.864Z,7.28
2022-10-18T06:28:45.574Z,5.55
2022-10-18T06:31:14.085Z,7.15
2022-10-18T06:33:41.607Z,5.10
2022-10-18T06:36:14.388Z,5.13
2022-10-18T06:38:42.119Z,5.88
2022-10-18T06:41:10.965Z,5.85
2022-10-18T06:43:39.100Z,4.85
2022-10-18T06:46:08.341Z,4.43
2022-10-18T06:48:37.240Z,5.45
2022-10-18T06:51:06.880Z,4.00
2022-10-18T06:53:48.589Z,4.13
2022-10-18T06:56:24.552Z,4.75
2022-10-18T06:58:51.920Z,4.07
2022-10-18T07:01:20.063Z,3.88
2022-10-18T07:03:48.726Z,4.00
2022-10-18T07:06:18.731Z,4.22
2022-10-18T07:08:50.243Z,4.13
2022-10-18T07:11:20.808Z,4.35
2022-10-18T07:13:48.142Z,4.57
2022-10-18T07:16:18.622Z,5.00
2022-10-18T07:18:52.304Z,5.10
2022-10-18T07:21:26.006Z,4.97
2022-10-18T07:23:54.089Z,4.47
2022-10-18T07:26:24.986Z,4.70
2022-10-18T07:28:55.575Z,4.43
2022-10-18T07:31:23.582Z,3.90
2022-10-18T07:33:51.269Z,4.55
2022-10-18T07:36:21.438Z,4.03
2022-10-18T07:38:49.955Z,3.47
2022-10-18T07:41:17.332Z,3.40
2022-10-18T07:43:47.461Z,3.42
2022-10-18T07:46:18.316Z,3.05
2022-10-18T07:48:45.738Z,3.67
2022-10-18T07:51:13.583Z,3.15
2022-10-18T07:53:41.806Z,2.80
2022-10-18T07:56:16.267Z,3.45
2022-10-18T07:58:45.600Z,3.27
2022-10-18T08:01:14.012Z,3.42
2022-10-18T08:03:43.125Z,3.33
2022-10-18T08:06:12.488Z,3.78
2022-10-18T08:08:41.025Z,4.53
2022-10-18T08:11:12.720Z,3.55
2022-10-18T08:13:40.092Z,2.65
2022-10-18T08:16:13.269Z,4.40
2022-10-18T08:18:40.886Z,5.47
2022-10-18T08:21:14.662Z,6.80
2022-10-18T08:23:44.018Z,6.40
2022-10-18T08:26:18.051Z,7.25
2022-10-18T08:28:53.963Z,7.32
2022-10-18T08:31:26.331Z,4.95
2022-10-18T08:33:57.441Z,7.10
2022-10-18T08:36:25.065Z,3.50
2022-10-18T08:38:52.468Z,3.70
2022-10-18T08:41:28.692Z,5.22
2022-10-18T08:44:07.768Z,5.22
2022-10-18T08:46:37.752Z,3.17
2022-10-18T08:49:07.565Z,3.33
2022-10-18T08:51:45.903Z,3.78
2022-10-18T08:54:16.224Z,3.35
2022-10-18T08:56:48.005Z,2.50
2022-10-18T08:59:15.642Z,2.60
2022-10-18T09:02:03.017Z,2.80
2022-10-18T09:04:58.080Z,3.13
2022-10-18T09:07:51.771Z,3.20
2022-10-18T09:10:31.533Z,2.95
2022-10-18T09:13:23.804Z,3.28
2022-10-18T09:16:01.251Z,3.47
2022-10-18T09:19:00.962Z,3.58
2022-10-18T09:21:43.748Z,3.20
2022-10-18T09:24:21.439Z,3.40
2022-10-18T09:26:52.401Z,2.90
2022-10-18T09:29:28.829Z,3.13
2022-10-18T09:32:14.767Z,2.78
2022-10-18T09:34:59.979Z,3.03
2022-10-18T09:37:30.758Z,3.10
2022-10-18T09:40:18.061Z,2.90
2022-10-18T09:43:12.051Z,2.95
2022-10-18T09:45:45.829Z,3.25
2022-10-18T09:48:18.954Z,3.03
2022-10-18T09:50:55.284Z,2.60
2022-10-18T09:53:54.834Z,2.88
2022-10-18T09:56:49.288Z,2.22
2022-10-18T09:59:31.879Z,2.92
2022-10-18T10:01:59.317Z,2.70
2022-10-18T10:04:27.388Z,2.80
2022-10-18T10:06:56.675Z,2.67
2022-10-18T10:09:38.500Z,2.90
2022-10-18T10:12:05.938Z,2.95
2022-10-18T10:14:44.221Z,2.80
2022-10-18T10:17:31.481Z,3.35
2022-10-18T10:20:18.538Z,3.47
2022-10-18T10:22:50.488Z,3.08
2022-10-18T10:25:38.383Z,2.78
2022-10-18T10:28:18.443Z,2.90
2022-10-18T10:30:45.839Z,2.60
2022-10-18T10:33:39.375Z,3.42
2022-10-18T10:36:20.375Z,2.90
2022-10-18T10:39:04.863Z,3.30
2022-10-18T10:44:14.317Z,3.00
2022-10-18T10:46:43.517Z,2.83
2022-10-18T10:49:41.491Z,3.58
2022-10-18T10:52:27.407Z,3.25
2022-10-18T10:55:06.105Z,3.20
2022-10-18T10:57:48.843Z,3.10
2022-10-18T11:00:34.538Z,3.28
2022-10-18T11:03:28.624Z,3.22
2022-10-18T11:05:58.148Z,3.72
2022-10-18T11:08:31.819Z,3.40
2022-10-18T11:11:23.154Z,3.03
2022-10-18T11:14:13.572Z,3.13
2022-10-18T11:17:18.032Z,2.53
2022-10-18T11:19:56.267Z,2.60
2022-10-18T11:22:28.187Z,3.10
2022-10-18T11:24:55.803Z,2.90
2022-10-18T11:27:28.717Z,2.72
2022-10-18T11:30:16.190Z,2.80
2022-10-18T11:33:18.942Z,3.22
2022-10-18T11:36:09.461Z,2.67
2022-10-18T11:38:52.050Z,2.90
2022-10-18T11:41:52.011Z,2.88
2022-10-18T11:44:46.314Z,3.40
2022-10-18T11:47:13.512Z,3.20
2022-10-18T11:49:49.870Z,3.17
2022-10-18T11:52:40.297Z,3.78
2022-10-18T11:55:32.771Z,3.90
2022-10-18T11:58:25.882Z,3.80
2022-10-18T12:01:03.896Z,4.50
2022-10-18T12:03:54.758Z,3.95
2022-10-18T12:06:26.725Z,3.80
2022-10-18T12:09:02.801Z,4.20
2022-10-18T12:11:41.841Z,4.20
2022-10-18T12:14:26.243Z,3.70
2022-10-18T12:17:20.179Z,4.30
2022-10-18T12:19:46.455Z,5.10
2022-10-18T12:22:21.584Z,4.97
2022-10-18T12:27:17.280Z,6.15
2022-10-18T12:30:00.843Z,5.80
2022-10-18T12:32:35.248Z,5.63
2022-10-18T12:35:10.372Z,5.22
2022-10-18T12:37:56.429Z,5.13
2022-10-18T12:40:44.254Z,5.05
2022-10-18T12:43:21.652Z,4.40
2022-10-18T12:45:59.000Z,4.00
2022-10-18T12:48:34.904Z,4.85
2022-10-18T12:51:15.403Z,5.10
2022-10-18T12:53:46.322Z,4.00
2022-10-18T12:56:28.935Z,3.40
2022-10-18T12:59:17.393Z,3.63
2022-10-18T13:01:51.046Z,3.45
2022-10-18T13:04:33.933Z,3.40
2022-10-18T13:07:03.212Z,3.58
2022-10-18T13:09:44.714Z,3.40
2022-10-18T13:12:13.167Z,3.53
2022-10-18T13:15:25.926Z,3.60
2022-10-18T13:18:05.171Z,3.80
2022-10-18T13:20:41.035Z,4.18
2022-10-18T13:23:11.238Z,4.00
2022-10-18T13:25:57.231Z,3.50
2022-10-18T13:28:51.012Z,4.07
2022-10-18T13:31:43.057Z,3.63
2022-10-18T13:34:25.143Z,4.07
2022-10-18T13:37:01.835Z,3.15
2022-10-18T13:39:30.851Z,3.45
2022-10-18T13:41:58.237Z,3.60
2022-10-18T13:44:40.145Z,3.20
2022-10-18T13:47:07.392Z,2.85
2022-10-18T13:49:40.833Z,3.03
2022-10-18T13:52:25.684Z,3.60
2022-10-18T13:55:30.336Z,3.60
2022-10-18T13:58:48.987Z,3.38
2022-10-18T14:01:38.981Z,3.75
2022-10-18T14:04:27.067Z,3.47
2022-10-18T14:07:02.201Z,3.92
2022-10-18T14:09:44.522Z,3.88
2022-10-18T14:12:12.742Z,3.88
2022-10-18T14:14:46.511Z,5.00
2022-10-18T14:17:32.501Z,5.07
2022-10-18T14:20:21.592Z,5.32
2022-10-18T14:23:14.525Z,5.07
2022-10-18T14:25:42.182Z,4.65
2022-10-18T14:28:36.325Z,4.75
2022-10-18T14:31:20.120Z,4.88
2022-10-18T14:33:57.293Z,5.25
2022-10-18T14:36:41.005Z,5.53
2022-10-18T14:39:20.173Z,4.88
2022-10-18T14:41:58.763Z,4.97
2022-10-18T14:44:31.086Z,3.72
2022-10-18T14:47:02.936Z,4.70
2022-10-18T14:49:31.152Z,4.22
2022-10-18T14:52:00.746Z,5.43
2022-10-18T14:54:38.395Z,5.45
2022-10-18T14:57:07.118Z,6.03
2022-10-18T14:59:43.828Z,6.68
2022-10-18T15:02:17.887Z,7.38
2022-10-18T15:04:46.765Z,8.15
2022-10-18T15:07:17.984Z,7.93
2022-10-18T15:09:47.605Z,6.75
2022-10-18T15:12:16.466Z,6.55
2022-10-18T15:14:45.723Z,6.38
2022-10-18T15:17:21.961Z,7.30
2022-10-18T15:20:18.184Z,7.55
2022-10-18T15:25:21.886Z,8.25
2022-10-18T15:27:55.771Z,7.97
2022-10-18T15:30:28.424Z,8.13
2022-10-18T15:33:01.309Z,8.27
2022-10-18T15:35:37.299Z,7.70
2022-10-18T15:38:36.964Z,7.60
2022-10-18T15:41:37.165Z,7.57
2022-10-18T15:44:26.002Z,7.88
2022-10-18T15:46:57.008Z,8.65
2022-10-18T15:49:24.325Z,8.88
2022-10-18T15:52:26.549Z,8.82
2022-10-18T15:54:53.889Z,9.90
2022-10-18T15:57:21.760Z,10.10
2022-10-18T15:59:58.336Z,10.40
2022-10-18T16:02:25.915Z,11.10
2022-10-18T16:04:53.207Z,12.35
2022-10-18T16:07:20.725Z,12.57
2022-10-18T16:09:48.215Z,13.90
2022-10-18T16:12:15.627Z,13.73
2022-10-18T16:14:43.123Z,14.55
2022-10-18T16:17:19.179Z,15.35
2022-10-18T16:19:46.630Z,16.63
2022-10-18T16:24:46.838Z,17.85
2022-10-18T16:27:14.095Z,17.92
2022-10-18T16:29:42.014Z,19.30
2022-10-18T16:32:09.381Z,20.15
2022-10-18T16:34:36.670Z,20.25
2022-10-18T16:37:04.178Z,20.83
2022-10-18T16:39:35.073Z,21.83
2022-10-18T16:42:02.520Z,23.25
2022-10-18T16:44:29.799Z,23.60
2022-10-18T16:46:57.137Z,24.52
2022-10-18T16:49:26.400Z,24.30
2022-10-18T16:51:55.032Z,24.27
2022-10-18T16:54:22.873Z,25.08
2022-10-18T16:56:51.028Z,24.60
2022-10-18T16:59:30.205Z,25.55
2022-10-18T17:01:57.979Z,26.30
2022-10-18T17:04:25.393Z,24.75
2022-10-18T17:06:55.013Z,25.33
2022-10-18T17:09:22.459Z,27.50
2022-10-18T17:11:50.240Z,26.33
2022-10-18T17:14:17.816Z,26.48
2022-10-18T17:16:48.236Z,26.75
2022-10-18T17:19:20.299Z,26.20
2022-10-18T17:21:47.706Z,28.50
2022-10-18T17:24:15.104Z,27.88
2022-10-18T17:26:42.510Z,28.67
2022-10-18T17:29:10.252Z,29.45
2022-10-18T17:31:37.686Z,29.58
2022-10-18T17:34:05.010Z,31.35
2022-10-18T17:36:33.469Z,30.25
2022-10-18T17:39:00.982Z,32.80
2022-10-18T17:41:28.622Z,31.80
2022-10-18T17:43:56.014Z,33.38
2022-10-18T17:46:26.539Z,33.30
2022-10-18T17:48:55.092Z,32.17
2022-10-18T17:51:22.945Z,32.63
2022-10-18T17:53:50.379Z,33.85
2022-10-18T17:56:17.737Z,34.33
2022-10-18T17:58:45.935Z,35.75
2022-10-18T18:01:13.487Z,33.53
2022-10-18T18:03:41.646Z,33.03
2022-10-18T18:06:31.555Z,34.58
2022-10-18T18:09:01.177Z,33.75
2022-10-18T18:11:29.272Z,31.88
2022-10-18T18:13:56.952Z,32.13
2022-10-18T18:16:26.769Z,32.25
2022-10-18T18:18:56.453Z,36.38
2022-10-18T18:21:26.032Z,35.50
2022-10-18T18:23:53.999Z,34.08
2022-10-18T18:26:22.012Z,29.42
2022-10-18T18:28:49.817Z,26.75
2022-10-18T18:31:25.791Z,21.52
2022-10-18T18:33:55.352Z,18.35
2022-10-18T18:36:24.085Z,16.85
2022-10-18T18:38:56.899Z,15.25
2022-10-18T18:41:27.595Z,14.23
2022-10-18T18:44:01.558Z,13.18
2022-10-18T18:46:33.232Z,13.25
2022-10-18T18:49:01.200Z,12.82
2022-10-18T18:51:29.151Z,13.10
2022-10-18T18:53:56.563Z,13.63
2022-10-18T18:56:27.442Z,12.68
2022-10-18T18:58:55.807Z,13.82
2022-10-18T19:01:26.049Z,12.88
2022-10-18T19:03:55.670Z,12.43
2022-10-18T19:06:36.945Z,11.50
2022-10-18T19:09:23.060Z,11.20
2022-10-18T19:11:53.214Z,12.00
2022-10-18T19:16:54.381Z,12.50
2022-10-18T19:19:24.016Z,11.77
2022-10-18T19:21:54.039Z,11.73
2022-10-18T19:24:23.805Z,11.05
2022-10-18T19:26:56.632Z,10.23
2022-10-18T19:29:29.740Z,11.38
2022-10-18T19:31:59.439Z,11.18
2022-10-18T19:34:28.810Z,10.48
2022-10-18T19:36:56.891Z,11.95
2022-10-18T19:39:26.725Z,12.27
2022-10-18T19:41:56.271Z,11.82
2022-10-18T19:44:25.740Z,10.95
2022-10-18T19:46:53.234Z,11.18
2022-10-18T19:49:20.851Z,11.65
2022-10-18T19:51:48.723Z,11.07
2022-10-18T19:54:16.735Z,11.07
2022-10-18T19:56:44.823Z,10.80
2022-10-18T19:59:14.124Z,10.65
2022-10-18T20:01:42.061Z,11.45
2022-10-18T20:04:10.960Z,10.80
2022-10-18T20:06:39.355Z,11.48
2022-10-18T20:09:08.086Z,10.95
2022-10-18T20:11:35.780Z,11.57
2022-10-18T20:14:05.671Z,11.38
2022-10-18T20:16:33.991Z,11.55
2022-10-18T20:19:04.326Z,12.30
2022-10-18T20:21:36.087Z,14.00
2022-10-18T20:24:05.799Z,13.63
2022-10-18T20:26:34.787Z,13.65
2022-10-18T20:29:02.402Z,14.23
2022-10-18T20:31:32.319Z,12.80
2022-10-18T20:34:05.073Z,14.23
2022-10-18T20:36:33.317Z,14.50
2022-10-18T20:39:00.866Z,14.48
2022-10-18T20:41:34.286Z,13.40
2022-10-18T20:44:05.026Z,13.85
2022-10-18T20:46:35.302Z,13.82
2022-10-18T20:49:03.462Z,12.50
2022-10-18T20:51:31.335Z,12.63
2022-10-18T20:54:00.084Z,11.77
2022-10-18T20:56:27.667Z,10.73
2022-10-18T20:58:57.328Z,10.98
2022-10-18T21:01:27.779Z,9.88
2022-10-18T21:03:57.820Z,8.88
2022-10-18T21:06:28.026Z,9.18
2022-10-18T21:09:03.862Z,8.18
2022-10-18T21:11:32.305Z,7.38
2022-10-18T21:14:02.953Z,8.73
2022-10-18T21:16:32.556Z,8.18
2022-10-18T21:19:06.742Z,8.73
2022-10-18T21:21:34.307Z,8.10
2022-10-18T21:24:05.343Z,8.88
2022-10-18T21:26:36.066Z,9.15
2022-10-18T21:29:05.107Z,8.93
2022-10-18T21:31:38.362Z,7.80
2022-10-18T21:34:13.149Z,8.55
2022-10-18T21:36:41.847Z,8.27
2022-10-18T21:39:13.311Z,8.13
2022-10-18T21:41:40.991Z,8.55
2022-10-18T21:44:10.717Z,7.60
2022-10-18T21:46:39.823Z,7.78
2022-10-18T21:49:08.194Z,7.82
2022-10-18T21:51:36.444Z,7.05
2022-10-18T21:54:04.376Z,6.93
2022-10-18T21:56:33.796Z,7.28
2022-10-18T21:59:02.382Z,6.53
2022-10-18T22:01:33.036Z,6.38
2022-10-18T22:04:02.564Z,6.45
2022-10-18T22:06:33.013Z,6.53
2022-10-18T22:09:07.509Z,6.03
2022-10-18T22:11:39.398Z,6.45
2022-10-18T22:14:06.799Z,6.65
2022-10-18T22:16:34.122Z,6.40
2022-10-18T22:19:03.023Z,7.10
2022-10-18T22:21:30.480Z,6.88
2022-10-18T22:23:58.335Z,7.10
2022-10-18T22:26:31.279Z,6.78
2022-10-18T22:29:01.575Z,7.03
2022-10-18T22:31:31.844Z,6.60
2022-10-18T22:34:01.703Z,5.97
2022-10-18T22:36:29.552Z,6.60
2022-10-18T22:38:57.405Z,7.20
2022-10-18T22:41:27.930Z,6.50
2022-10-18T22:43:57.299Z,6.53
2022-10-18T22:46:27.166Z,7.00
2022-10-18T22:48:54.751Z,6.80
2022-10-18T22:51:22.108Z,6.35
2022-10-18T22:53:49.901Z,6.45
2022-10-18T22:56:20.287Z,6.90
2022-10-18T22:58:51.023Z,6.82
2022-10-18T23:01:21.229Z,6.88
2022-10-18T23:03:54.056Z,6.55
2022-10-18T23:06:33.549Z,6.78
2022-10-18T23:09:05.912Z,6.82
2022-10-18T23:11:34.784Z,6.60
2022-10-18T23:14:04.022Z,6.30
2022-10-18T23:16:31.787Z,5.95
2022-10-18T23:18:59.821Z,5.50
2022-10-18T23:21:29.061Z,5.22
2022-10-18T23:23:57.547Z,5.25
2022-10-18T23:26:26.993Z,4.90
2022-10-18T23:28:54.744Z,4.60
2022-10-18T23:31:25.333Z,4.88
2022-10-18T23:33:54.917Z,4.35
2022-10-18T23:36:23.181Z,4.45
2022-10-18T23:38:50.817Z,4.32
2022-10-18T23:41:18.835Z,4.57
2022-10-18T23:43:46.755Z,4.43
2022-10-18T23:46:15.572Z,4.25
2022-10-18T23:48:42.893Z,4.32
2022-10-18T23:51:10.781Z,4.40
2022-10-18T23:53:38.825Z,4.47
2022-10-18T23:56:09.958Z,4.40
2022-10-18T23:58:38.460Z,4.20
